Time,TemperatureF,DewpointF,PressureIn,WindDirection,WindDirectionDegrees,WindSpeedMPH,WindSpeedGustMPH,Humidity,HourlyPrecipIn,Conditions,Clouds,dailyrainin,SoftwareType,DateUTC
2013-02-18 00:03:00,14.0,1.0,29.98,NW,315,7.0,8.0,58,0.00,,,0.00,TxWx,2013-02-18 05:03:00,
2013-02-18 00:08:00,14.0,1.0,29.98,NW,315,6.0,10.0,58,0.00,,,0.00,TxWx,2013-02-18 05:08:00,
2013-02-18 00:13:00,14.0,1.0,29.98,West,270,10.0,10.0,58,0.00,,,0.00,TxWx,2013-02-18 05:13:00,
2013-02-18 00:18:00,14.0,1.0,29.99,NW,315,5.0,7.0,58,0.00,,,0.00,TxWx,2013-02-18 05:18:00,
2013-02-18 00:23:00,14.0,1.0,29.99,NW,315,10.0,11.0,57,0.00,,,0.00,TxWx,2013-02-18 05:23:00,
2013-02-18 00:28:00,14.0,1.0,30.00,West,270,11.0,18.0,58,0.00,,,0.00,TxWx,2013-02-18 05:28:00,
2013-02-18 00:34:00,14.0,1.0,30.00,WNW,292,8.0,11.0,58,0.00,,,0.00,TxWx,2013-02-18 05:34:00,
2013-02-18 00:39:00,14.0,1.0,30.00,NW,315,10.0,12.0,57,0.00,,,0.00,TxWx,2013-02-18 05:39:00,
2013-02-18 00:47:00,14.0,0.0,30.01,NW,315,9.0,11.0,58,0.00,,,0.00,TxWx,2013-02-18 05:47:00,
2013-02-18 00:52:00,13.0,0.0,30.01,NW,315,10.0,11.0,58,0.00,,,0.00,TxWx,2013-02-18 05:52:00,
2013-02-18 00:57:00,13.0,0.0,30.01,NW,315,10.0,12.0,58,0.00,,,0.00,TxWx,2013-02-18 05:57:00,
2013-02-18 01:02:00,13.0,0.0,30.01,NW,315,5.0,5.0,58,0.00,,,0.00,TxWx,2013-02-18 06:02:00,
2013-02-18 01:07:00,13.0,0.0,30.01,WSW,247,6.0,18.0,58,0.00,,,0.00,TxWx,2013-02-18 06:07:00,
2013-02-18 01:12:00,13.0,0.0,30.02,NNW,337,4.0,6.0,58,0.00,,,0.00,TxWx,2013-02-18 06:12:00,
2013-02-18 01:17:00,13.0,0.0,30.02,WSW,247,8.0,12.0,59,0.00,,,0.00,TxWx,2013-02-18 06:17:00,
2013-02-18 01:22:00,13.0,0.0,30.03,WSW,247,8.0,12.0,59,0.00,,,0.00,TxWx,2013-02-18 06:22:00,
2013-02-18 01:27:00,13.0,0.0,30.03,West,270,5.0,5.0,59,0.00,,,0.00,TxWx,2013-02-18 06:27:00,
2013-02-18 01:32:00,13.0,0.0,30.03,WSW,247,10.0,11.0,59,0.00,,,0.00,TxWx,2013-02-18 06:32:00,
2013-02-18 01:37:00,13.0,0.0,30.03,East,90,1.0,5.0,59,0.00,,,0.00,TxWx,2013-02-18 06:37:00,
2013-02-18 01:42:00,13.0,0.0,30.04,NNW,337,4.0,4.0,59,0.00,,,0.00,TxWx,2013-02-18 06:42:00,
2013-02-18 01:47:00,13.0,0.0,30.04,NNE,22,8.0,8.0,59,0.00,,,0.00,TxWx,2013-02-18 06:47:00,
2013-02-18 01:52:00,13.0,0.0,30.04,WNW,292,10.0,13.0,59,0.00,,,0.00,TxWx,2013-02-18 06:52:00,
2013-02-18 01:57:00,13.0,0.0,30.04,NW,315,8.0,9.0,59,0.00,,,0.00,TxWx,2013-02-18 06:57:00,
2013-02-18 02:02:00,13.0,1.0,30.04,ENE,67,0.0,3.0,60,0.00,,,0.00,TxWx,2013-02-18 07:02:00,
2013-02-18 02:07:00,13.0,1.0,30.04,NW,315,8.0,11.0,60,0.00,,,0.00,TxWx,2013-02-18 07:07:00,
2013-02-18 02:12:00,13.0,1.0,30.04,West,270,16.0,16.0,61,0.00,,,0.00,TxWx,2013-02-18 07:12:00,
2013-02-18 02:17:00,13.0,1.0,30.04,NE,45,6.0,6.0,61,0.00,,,0.00,TxWx,2013-02-18 07:17:00,
2013-02-18 02:23:00,13.0,1.0,30.04,North,0,3.0,5.0,61,0.00,,,0.00,TxWx,2013-02-18 07:23:00,
2013-02-18 02:28:00,13.0,1.0,30.05,SW,225,5.0,7.0,61,0.00,,,0.00,TxWx,2013-02-18 07:28:00,
2013-02-18 02:33:00,13.0,1.0,30.05,NW,315,13.0,13.0,61,0.00,,,0.00,TxWx,2013-02-18 07:33:00,
2013-02-18 02:38:00,13.0,1.0,30.05,WNW,292,3.0,7.0,62,0.00,,,0.00,TxWx,2013-02-18 07:38:00,
2013-02-18 02:43:00,13.0,1.0,30.05,NW,315,5.0,8.0,62,0.00,,,0.00,TxWx,2013-02-18 07:43:00,
2013-02-18 02:48:00,12.0,0.0,30.06,West,270,8.0,11.0,62,0.00,,,0.00,TxWx,2013-02-18 07:48:00,
2013-02-18 02:53:00,12.0,0.0,30.06,West,270,11.0,14.0,62,0.00,,,0.00,TxWx,2013-02-18 07:53:00,
2013-02-18 02:58:00,12.0,0.0,30.06,WSW,247,5.0,6.0,62,0.00,,,0.00,TxWx,2013-02-18 07:58:00,
2013-02-18 03:03:00,12.0,0.0,30.06,WNW,292,9.0,11.0,62,0.00,,,0.00,TxWx,2013-02-18 08:03:00,
2013-02-18 03:08:00,12.0,0.0,30.06,West,270,5.0,12.0,62,0.00,,,0.00,TxWx,2013-02-18 08:08:00,
2013-02-18 03:13:00,12.0,0.0,30.07,West,270,7.0,8.0,62,0.00,,,0.00,TxWx,2013-02-18 08:13:00,
2013-02-18 03:18:00,12.0,0.0,30.07,WNW,292,11.0,11.0,62,0.00,,,0.00,TxWx,2013-02-18 08:18:00,
2013-02-18 03:23:00,12.0,0.0,30.07,WNW,292,11.0,12.0,62,0.00,,,0.00,TxWx,2013-02-18 08:23:00,
2013-02-18 03:28:00,12.0,1.0,30.07,West,270,6.0,6.0,63,0.00,,,0.00,TxWx,2013-02-18 08:28:00,
2013-02-18 03:34:00,12.0,1.0,30.07,SW,225,13.0,13.0,63,0.00,,,0.00,TxWx,2013-02-18 08:34:00,
2013-02-18 03:39:00,12.0,1.0,30.08,SW,225,5.0,8.0,63,0.00,,,0.00,TxWx,2013-02-18 08:39:00,
2013-02-18 03:44:00,12.0,1.0,30.08,SW,225,3.0,3.0,63,0.00,,,0.00,TxWx,2013-02-18 08:44:00,
2013-02-18 03:49:00,11.0,0.0,30.08,SSW,202,14.0,14.0,63,0.00,,,0.00,TxWx,2013-02-18 08:49:00,
2013-02-18 03:54:00,11.0,0.0,30.08,NW,315,7.0,10.0,63,0.00,,,0.00,TxWx,2013-02-18 08:54:00,
2013-02-18 03:59:00,11.0,0.0,30.09,SW,225,11.0,18.0,64,0.00,,,0.00,TxWx,2013-02-18 08:59:00,
2013-02-18 04:04:00,11.0,0.0,30.09,NW,315,6.0,8.0,64,0.00,,,0.00,TxWx,2013-02-18 09:04:00,
2013-02-18 04:09:00,11.0,0.0,30.09,West,270,10.0,10.0,64,0.00,,,0.00,TxWx,2013-02-18 09:09:00,
2013-02-18 04:14:00,11.0,0.0,30.10,WSW,247,11.0,14.0,64,0.00,,,0.00,TxWx,2013-02-18 09:14:00,
2013-02-18 04:19:00,11.0,0.0,30.10,West,270,10.0,14.0,64,0.00,,,0.00,TxWx,2013-02-18 09:19:00,
2013-02-18 04:24:00,11.0,0.0,30.10,NNW,337,5.0,10.0,64,0.00,,,0.00,TxWx,2013-02-18 09:24:00,
2013-02-18 04:29:00,11.0,0.0,30.10,West,270,6.0,9.0,64,0.00,,,0.00,TxWx,2013-02-18 09:29:00,
2013-02-18 04:34:00,11.0,0.0,30.10,West,270,6.0,7.0,64,0.00,,,0.00,TxWx,2013-02-18 09:34:00,
2013-02-18 04:39:00,11.0,0.0,30.10,SW,225,11.0,12.0,64,0.00,,,0.00,TxWx,2013-02-18 09:39:00,
2013-02-18 04:45:00,11.0,0.0,30.11,SW,225,6.0,10.0,64,0.00,,,0.00,TxWx,2013-02-18 09:45:00,
2013-02-18 04:47:00,27.0,3.0,30.19,West,270,5.0,5.0,38,0.00,,,0.00,TxWx,2013-02-18 09:47:00,
2013-02-18 04:48:00,27.0,3.0,30.19,WSW,247,14.0,14.0,37,0.00,,,0.00,TxWx,2013-02-18 09:48:00,
2013-02-18 04:49:00,27.0,3.0,30.19,SW,225,13.0,14.0,37,0.00,,,0.00,TxWx,2013-02-18 09:49:00,
2013-02-18 04:50:00,11.0,0.0,30.11,West,270,14.0,19.0,64,0.00,,,0.00,TxWx,2013-02-18 09:50:00,
2013-02-18 04:51:00,27.0,3.0,30.19,West,270,16.0,16.0,37,0.00,,,0.00,TxWx,2013-02-18 09:51:00,
2013-02-18 04:55:00,11.0,0.0,30.11,WSW,247,8.0,10.0,64,0.00,,,0.00,TxWx,2013-02-18 09:55:00,
2013-02-18 05:00:00,11.0,0.0,30.12,West,270,10.0,12.0,63,0.00,,,0.00,TxWx,2013-02-18 10:00:00,
2013-02-18 05:05:00,11.0,0.0,30.12,WNW,292,5.0,6.0,63,0.00,,,0.00,TxWx,2013-02-18 10:05:00,
2013-02-18 05:10:00,10.0,-1.0,30.13,West,270,5.0,8.0,63,0.00,,,0.00,TxWx,2013-02-18 10:10:00,
2013-02-18 05:15:00,10.0,-1.0,30.13,WNW,292,6.0,7.0,63,0.00,,,0.00,TxWx,2013-02-18 10:15:00,
2013-02-18 05:20:00,10.0,-1.0,30.13,SSW,202,5.0,6.0,63,0.00,,,0.00,TxWx,2013-02-18 10:20:00,
2013-02-18 05:25:00,10.0,-1.0,30.13,WNW,292,5.0,8.0,63,0.00,,,0.00,TxWx,2013-02-18 10:25:00,
2013-02-18 05:30:00,10.0,-1.0,30.14,NW,315,3.0,4.0,63,0.00,,,0.00,TxWx,2013-02-18 10:30:00,
2013-02-18 05:35:00,10.0,-1.0,30.14,West,270,13.0,19.0,63,0.00,,,0.00,TxWx,2013-02-18 10:35:00,
2013-02-18 05:40:00,10.0,-1.0,30.14,WSW,247,6.0,7.0,63,0.00,,,0.00,TxWx,2013-02-18 10:40:00,
2013-02-18 05:45:00,10.0,-1.0,30.15,West,270,8.0,14.0,63,0.00,,,0.00,TxWx,2013-02-18 10:45:00,
2013-02-18 05:50:00,10.0,-1.0,30.15,WSW,247,3.0,4.0,63,0.00,,,0.00,TxWx,2013-02-18 10:50:00,
2013-02-18 05:56:00,10.0,-1.0,30.16,SSW,202,3.0,5.0,63,0.00,,,0.00,TxWx,2013-02-18 10:56:00,
2013-02-18 06:01:00,10.0,-1.0,30.16,WNW,292,7.0,10.0,63,0.00,,,0.00,TxWx,2013-02-18 11:01:00,
2013-02-18 06:06:00,10.0,-1.0,30.17,WNW,292,2.0,5.0,63,0.00,,,0.00,TxWx,2013-02-18 11:06:00,
2013-02-18 06:11:00,10.0,-1.0,30.17,South,180,3.0,8.0,63,0.00,,,0.00,TxWx,2013-02-18 11:11:00,
2013-02-18 06:16:00,10.0,-1.0,30.17,West,270,11.0,16.0,63,0.00,,,0.00,TxWx,2013-02-18 11:16:00,
2013-02-18 06:21:00,10.0,-1.0,30.18,West,270,9.0,15.0,63,0.00,,,0.00,TxWx,2013-02-18 11:21:00,
2013-02-18 06:26:00,10.0,-1.0,30.19,WSW,247,11.0,11.0,63,0.00,,,0.00,TxWx,2013-02-18 11:26:00,
2013-02-18 06:31:00,10.0,-1.0,30.19,SW,225,13.0,18.0,63,0.00,,,0.00,TxWx,2013-02-18 11:31:00,
2013-02-18 06:36:00,10.0,-1.0,30.19,West,270,8.0,8.0,63,0.00,,,0.00,TxWx,2013-02-18 11:36:00,
2013-02-18 06:41:00,10.0,-1.0,30.20,WNW,292,5.0,8.0,63,0.00,,,0.00,TxWx,2013-02-18 11:41:00,
2013-02-18 06:43:00,28.0,7.0,30.20,South,180,5.0,5.0,43,0.00,,,0.00,TxWx,2013-02-18 11:43:00,
2013-02-18 06:44:00,28.0,7.0,30.20,WNW,292,3.0,3.0,43,0.00,,,0.00,TxWx,2013-02-18 11:44:00,
2013-02-18 06:45:00,28.0,7.0,30.20,NNW,337,3.0,3.0,43,0.00,,,0.00,TxWx,2013-02-18 11:45:00,
2013-02-18 06:46:00,10.0,-1.0,30.19,NW,315,8.0,10.0,63,0.00,,,0.00,TxWx,2013-02-18 11:46:00,
2013-02-18 06:47:00,28.0,7.0,30.20,North,0,2.0,8.0,43,0.00,,,0.00,TxWx,2013-02-18 11:47:00,
2013-02-18 06:48:00,28.0,7.0,30.20,WSW,247,5.0,6.0,43,0.00,,,0.00,TxWx,2013-02-18 11:48:00,
2013-02-18 06:51:00,10.0,-1.0,30.20,WNW,292,5.0,6.0,63,0.00,,,0.00,TxWx,2013-02-18 11:51:00,
2013-02-18 06:56:00,10.0,-1.0,30.20,WNW,292,6.0,8.0,63,0.00,,,0.00,TxWx,2013-02-18 11:56:00,
2013-02-18 07:02:00,10.0,-1.0,30.20,NW,315,9.0,9.0,64,0.00,,,0.00,TxWx,2013-02-18 12:02:00,
2013-02-18 07:07:00,10.0,-1.0,30.21,NNE,22,0.0,2.0,64,0.00,,,0.00,TxWx,2013-02-18 12:07:00,
2013-02-18 07:12:00,10.0,-1.0,30.20,West,270,5.0,6.0,63,0.00,,,0.00,TxWx,2013-02-18 12:12:00,
2013-02-18 07:17:00,10.0,-1.0,30.21,WNW,292,2.0,3.0,63,0.00,,,0.00,TxWx,2013-02-18 12:17:00,
2013-02-18 07:22:00,10.0,-1.0,30.21,NW,315,7.0,7.0,63,0.00,,,0.00,TxWx,2013-02-18 12:22:00,
2013-02-18 07:27:00,10.0,-1.0,30.21,NNE,22,1.0,3.0,62,0.00,,,0.00,TxWx,2013-02-18 12:27:00,
2013-02-18 07:32:00,11.0,-1.0,30.21,NNW,337,0.0,0.0,62,0.00,,,0.00,TxWx,2013-02-18 12:32:00,
2013-02-18 07:37:00,11.0,-1.0,30.21,NW,315,5.0,6.0,61,0.00,,,0.00,TxWx,2013-02-18 12:37:00,
2013-02-18 07:42:00,11.0,-1.0,30.22,SSW,202,2.0,3.0,61,0.00,,,0.00,TxWx,2013-02-18 12:42:00,
2013-02-18 07:47:00,12.0,0.0,30.22,South,180,2.0,5.0,61,0.00,,,0.00,TxWx,2013-02-18 12:47:00,
2013-02-18 07:52:00,12.0,0.0,30.22,West,270,4.0,6.0,60,0.00,,,0.00,TxWx,2013-02-18 12:52:00,
2013-02-18 07:57:00,12.0,0.0,30.22,SSE,157,1.0,5.0,60,0.00,,,0.00,TxWx,2013-02-18 12:57:00,
2013-02-18 08:03:00,12.0,-1.0,30.22,West,270,5.0,6.0,59,0.00,,,0.00,TxWx,2013-02-18 13:03:00,
2013-02-18 08:08:00,12.0,-1.0,30.22,WNW,292,6.0,8.0,58,0.00,,,0.00,TxWx,2013-02-18 13:08:00,
2013-02-18 08:13:00,12.0,-1.0,30.23,SW,225,11.0,12.0,58,0.00,,,0.00,TxWx,2013-02-18 13:13:00,
2013-02-18 08:18:00,12.0,-1.0,30.23,WNW,292,10.0,13.0,58,0.00,,,0.00,TxWx,2013-02-18 13:18:00,
2013-02-18 08:23:00,13.0,0.0,30.22,West,270,5.0,6.0,57,0.00,,,0.00,TxWx,2013-02-18 13:23:00,
2013-02-18 08:28:00,13.0,-1.0,30.23,WSW,247,5.0,5.0,57,0.00,,,0.00,TxWx,2013-02-18 13:28:00,
2013-02-18 08:33:00,13.0,-1.0,30.23,West,270,13.0,14.0,56,0.00,,,0.00,TxWx,2013-02-18 13:33:00,
2013-02-18 08:38:00,13.0,-1.0,30.23,WNW,292,9.0,9.0,56,0.00,,,0.00,TxWx,2013-02-18 13:38:00,
2013-02-18 08:43:00,13.0,-1.0,30.23,WNW,292,5.0,11.0,55,0.00,,,0.00,TxWx,2013-02-18 13:43:00,
2013-02-18 08:48:00,13.0,-1.0,30.23,SW,225,4.0,6.0,55,0.00,,,0.00,TxWx,2013-02-18 13:48:00,
2013-02-18 08:53:00,13.0,-1.0,30.23,West,270,7.0,8.0,55,0.00,,,0.00,TxWx,2013-02-18 13:53:00,
2013-02-18 08:58:00,14.0,-1.0,30.23,SW,225,7.0,11.0,54,0.00,,,0.00,TxWx,2013-02-18 13:58:00,
2013-02-18 09:03:00,14.0,0.0,30.23,SW,225,5.0,9.0,55,0.00,,,0.00,TxWx,2013-02-18 14:03:00,
2013-02-18 09:09:00,15.0,0.0,30.23,WNW,292,5.0,5.0,54,0.00,,,0.00,TxWx,2013-02-18 14:09:00,
2013-02-18 09:14:00,15.0,0.0,30.23,SW,225,12.0,16.0,54,0.00,,,0.00,TxWx,2013-02-18 14:14:00,
2013-02-18 09:19:00,15.0,0.0,30.23,West,270,5.0,8.0,54,0.00,,,0.00,TxWx,2013-02-18 14:19:00,
2013-02-18 09:24:00,15.0,0.0,30.24,West,270,12.0,12.0,53,0.00,,,0.00,TxWx,2013-02-18 14:24:00,
2013-02-18 09:29:00,15.0,0.0,30.24,SW,225,6.0,8.0,53,0.00,,,0.00,TxWx,2013-02-18 14:29:00,
2013-02-18 09:34:00,16.0,1.0,30.24,SW,225,7.0,8.0,54,0.00,,,0.00,TxWx,2013-02-18 14:34:00,
2013-02-18 09:39:00,16.0,1.0,30.24,WNW,292,6.0,10.0,54,0.00,,,0.00,TxWx,2013-02-18 14:39:00,
2013-02-18 09:44:00,16.0,1.0,30.24,WSW,247,6.0,13.0,55,0.00,,,0.00,TxWx,2013-02-18 14:44:00,
2013-02-18 09:49:00,16.0,1.0,30.24,SSW,202,16.0,18.0,55,0.00,,,0.00,TxWx,2013-02-18 14:49:00,
2013-02-18 09:54:00,16.0,1.0,30.24,NW,315,10.0,10.0,55,0.00,,,0.00,TxWx,2013-02-18 14:54:00,
2013-02-18 09:59:00,16.0,2.0,30.24,West,270,7.0,10.0,55,0.00,,,0.00,TxWx,2013-02-18 14:59:00,
2013-02-18 10:04:00,16.0,1.0,30.24,SW,225,5.0,8.0,55,0.00,,,0.00,TxWx,2013-02-18 15:04:00,
2013-02-18 10:10:00,17.0,2.0,30.24,WSW,247,15.0,16.0,53,0.00,,,0.00,TxWx,2013-02-18 15:10:00,
2013-02-18 10:15:00,17.0,2.0,30.24,West,270,13.0,14.0,54,0.00,,,0.00,TxWx,2013-02-18 15:15:00,
2013-02-18 10:20:00,17.0,2.0,30.24,South,180,2.0,7.0,53,0.00,,,0.00,TxWx,2013-02-18 15:20:00,
2013-02-18 10:25:00,17.0,1.0,30.24,WNW,292,18.0,18.0,52,0.00,,,0.00,TxWx,2013-02-18 15:25:00,
2013-02-18 10:30:00,17.0,1.0,30.24,West,270,8.0,13.0,51,0.00,,,0.00,TxWx,2013-02-18 15:30:00,
2013-02-18 10:35:00,17.0,1.0,30.24,NNW,337,6.0,10.0,50,0.00,,,0.00,TxWx,2013-02-18 15:35:00,
2013-02-18 10:40:00,17.0,0.0,30.24,West,270,14.0,18.0,49,0.00,,,0.00,TxWx,2013-02-18 15:40:00,
2013-02-18 10:45:00,18.0,1.0,30.24,SSW,202,5.0,7.0,49,0.00,,,0.00,TxWx,2013-02-18 15:45:00,
2013-02-18 10:50:00,18.0,0.0,30.24,West,270,6.0,10.0,48,0.00,,,0.00,TxWx,2013-02-18 15:50:00,
2013-02-18 10:55:00,18.0,0.0,30.24,WSW,247,17.0,23.0,47,0.00,,,0.00,TxWx,2013-02-18 15:55:00,
2013-02-18 11:00:00,18.0,0.0,30.25,WSW,247,16.0,18.0,46,0.00,,,0.00,TxWx,2013-02-18 16:00:00,
2013-02-18 11:05:00,18.0,0.0,30.25,WSW,247,3.0,6.0,47,0.00,,,0.00,TxWx,2013-02-18 16:05:00,
2013-02-18 11:11:00,19.0,1.0,30.25,SW,225,2.0,3.0,47,0.00,,,0.00,TxWx,2013-02-18 16:11:00,
2013-02-18 11:16:00,19.0,1.0,30.24,NW,315,7.0,8.0,46,0.00,,,0.00,TxWx,2013-02-18 16:16:00,
2013-02-18 11:21:00,20.0,1.0,30.24,WNW,292,13.0,14.0,45,0.00,,,0.00,TxWx,2013-02-18 16:21:00,
2013-02-18 11:26:00,20.0,1.0,30.24,NNW,337,13.0,14.0,45,0.00,,,0.00,TxWx,2013-02-18 16:26:00,
2013-02-18 11:31:00,20.0,0.0,30.24,WNW,292,8.0,11.0,44,0.00,,,0.00,TxWx,2013-02-18 16:31:00,
2013-02-18 11:36:00,20.0,1.0,30.24,WNW,292,5.0,5.0,45,0.00,,,0.00,TxWx,2013-02-18 16:36:00,
2013-02-18 11:41:00,20.0,1.0,30.24,NNW,337,6.0,10.0,44,0.00,,,0.00,TxWx,2013-02-18 16:41:00,
2013-02-18 11:46:00,20.0,1.0,30.23,West,270,14.0,14.0,44,0.00,,,0.00,TxWx,2013-02-18 16:46:00,
2013-02-18 11:51:00,21.0,2.0,30.23,NE,45,1.0,3.0,45,0.00,,,0.00,TxWx,2013-02-18 16:51:00,
2013-02-18 11:56:00,21.0,1.0,30.23,North,0,1.0,3.0,44,0.00,,,0.00,TxWx,2013-02-18 16:56:00,
2013-02-18 12:01:00,21.0,1.0,30.23,SE,135,3.0,10.0,44,0.00,,,0.00,TxWx,2013-02-18 17:01:00,
2013-02-18 12:06:00,21.0,2.0,30.23,WSW,247,10.0,13.0,45,0.00,,,0.00,TxWx,2013-02-18 17:06:00,
2013-02-18 12:11:00,22.0,2.0,30.23,SSW,202,6.0,7.0,44,0.00,,,0.00,TxWx,2013-02-18 17:11:00,
2013-02-18 12:16:00,22.0,2.0,30.22,WSW,247,9.0,10.0,44,0.00,,,0.00,TxWx,2013-02-18 17:16:00,
2013-02-18 12:22:00,22.0,2.0,30.22,West,270,8.0,10.0,44,0.00,,,0.00,TxWx,2013-02-18 17:22:00,
2013-02-18 12:27:00,22.0,2.0,30.22,SSW,202,13.0,13.0,44,0.00,,,0.00,TxWx,2013-02-18 17:27:00,
2013-02-18 12:32:00,22.0,2.0,30.21,West,270,8.0,11.0,43,0.00,,,0.00,TxWx,2013-02-18 17:32:00,
2013-02-18 12:37:00,22.0,1.0,30.21,West,270,10.0,16.0,41,0.00,,,0.00,TxWx,2013-02-18 17:37:00,
2013-02-18 12:42:00,23.0,1.0,30.21,WSW,247,10.0,10.0,40,0.00,,,0.00,TxWx,2013-02-18 17:42:00,
2013-02-18 12:47:00,23.0,1.0,30.21,WNW,292,11.0,13.0,40,0.00,,,0.00,TxWx,2013-02-18 17:47:00,
2013-02-18 12:52:00,23.0,1.0,30.21,NNE,22,2.0,3.0,40,0.00,,,0.00,TxWx,2013-02-18 17:52:00,
2013-02-18 12:57:00,24.0,2.0,30.21,WSW,247,9.0,9.0,39,0.00,,,0.00,TxWx,2013-02-18 17:57:00,
2013-02-18 13:02:00,23.0,-1.0,30.21,NW,315,8.0,10.0,37,0.00,,,0.00,TxWx,2013-02-18 18:02:00,
2013-02-18 13:07:00,24.0,1.0,30.21,SW,225,5.0,8.0,38,0.00,,,0.00,TxWx,2013-02-18 18:07:00,
2013-02-18 13:12:00,24.0,2.0,30.21,West,270,5.0,8.0,39,0.00,,,0.00,TxWx,2013-02-18 18:12:00,
2013-02-18 13:17:00,24.0,2.0,30.20,West,270,6.0,8.0,39,0.00,,,0.00,TxWx,2013-02-18 18:17:00,
2013-02-18 13:22:00,24.0,2.0,30.20,SW,225,6.0,13.0,41,0.00,,,0.00,TxWx,2013-02-18 18:22:00,
2013-02-18 13:27:00,24.0,2.0,30.20,WSW,247,10.0,10.0,40,0.00,,,0.00,TxWx,2013-02-18 18:27:00,
2013-02-18 13:32:00,24.0,3.0,30.20,SSW,202,11.0,11.0,41,0.00,,,0.00,TxWx,2013-02-18 18:32:00,
2013-02-18 13:38:00,24.0,2.0,30.20,SSW,202,5.0,6.0,40,0.00,,,0.00,TxWx,2013-02-18 18:38:00,
2013-02-18 13:43:00,25.0,2.0,30.19,WSW,247,8.0,9.0,38,0.00,,,0.00,TxWx,2013-02-18 18:43:00,
2013-02-18 13:48:00,25.0,2.0,30.20,WNW,292,8.0,10.0,39,0.00,,,0.00,TxWx,2013-02-18 18:48:00,
2013-02-18 13:53:00,25.0,2.0,30.19,South,180,8.0,8.0,39,0.00,,,0.00,TxWx,2013-02-18 18:53:00,
2013-02-18 13:58:00,25.0,2.0,30.19,WSW,247,8.0,10.0,38,0.00,,,0.00,TxWx,2013-02-18 18:58:00,
2013-02-18 14:00:00,22.0,11.0,30.18,SSE,157,3.0,4.0,65,0.00,,,0.00,TxWx,2013-02-18 19:00:00,
2013-02-18 14:01:00,22.0,11.0,30.18,SSE,157,2.0,3.0,65,0.00,,,0.00,TxWx,2013-02-18 19:01:00,
2013-02-18 14:02:00,22.0,11.0,30.18,SSE,157,2.0,3.0,65,0.00,,,0.00,TxWx,2013-02-18 19:02:00,
2013-02-18 14:03:00,25.0,3.0,30.19,WSW,247,11.0,11.0,39,0.00,,,0.00,TxWx,2013-02-18 19:03:00,
2013-02-18 14:04:00,22.0,11.0,30.18,SE,135,0.0,1.0,65,0.00,,,0.00,TxWx,2013-02-18 19:04:00,
2013-02-18 14:08:00,25.0,3.0,30.19,West,270,5.0,8.0,40,0.00,,,0.00,TxWx,2013-02-18 19:08:00,
2013-02-18 14:13:00,26.0,3.0,30.19,West,270,6.0,8.0,38,0.00,,,0.00,TxWx,2013-02-18 19:13:00,
2013-02-18 14:18:00,26.0,3.0,30.18,West,270,2.0,5.0,38,0.00,,,0.00,TxWx,2013-02-18 19:18:00,
2013-02-18 14:23:00,26.0,4.0,30.19,SW,225,6.0,6.0,40,0.00,,,0.00,TxWx,2013-02-18 19:23:00,
2013-02-18 14:28:00,26.0,4.0,30.19,West,270,11.0,15.0,40,0.00,,,0.00,TxWx,2013-02-18 19:28:00,
2013-02-18 14:29:00,22.0,11.0,30.18,SE,135,0.0,0.0,64,0.00,,,0.00,TxWx,2013-02-18 19:29:00,
2013-02-18 14:32:00,22.0,11.0,30.18,SE,135,0.0,0.0,64,0.00,,,0.00,TxWx,2013-02-18 19:32:00,
2013-02-18 14:33:00,26.0,3.0,30.19,WNW,292,5.0,5.0,39,0.00,,,0.00,TxWx,2013-02-18 19:33:00,
2013-02-18 14:34:00,22.0,11.0,30.18,SE,135,0.0,0.0,64,0.00,,,0.00,TxWx,2013-02-18 19:34:00,
2013-02-18 14:35:00,22.0,11.0,30.18,SE,135,0.0,0.0,64,0.00,,,0.00,TxWx,2013-02-18 19:35:00,
2013-02-18 14:36:00,22.0,11.0,30.18,SSE,157,0.0,0.0,64,0.00,,,0.00,TxWx,2013-02-18 19:36:00,
2013-02-18 14:37:00,22.0,11.0,30.18,ESE,112,0.0,0.0,64,0.00,,,0.00,TxWx,2013-02-18 19:37:00,
2013-02-18 14:38:00,22.0,11.0,30.18,ESE,112,0.0,0.0,64,0.00,,,0.00,TxWx,2013-02-18 19:38:00,
2013-02-18 14:39:00,27.0,3.0,30.19,West,270,16.0,16.0,38,0.00,,,0.00,TxWx,2013-02-18 19:39:00,
2013-02-18 14:40:00,22.0,11.0,30.18,ESE,112,0.0,0.0,64,0.00,,,0.00,TxWx,2013-02-18 19:40:00,
2013-02-18 14:41:00,22.0,11.0,30.18,ESE,112,0.0,0.0,64,0.00,,,0.00,TxWx,2013-02-18 19:41:00,
2013-02-18 14:42:00,22.0,11.0,30.18,SSE,157,0.0,0.0,64,0.00,,,0.00,TxWx,2013-02-18 19:42:00,
2013-02-18 14:43:00,22.0,11.0,30.18,SE,135,0.0,0.0,64,0.00,,,0.00,TxWx,2013-02-18 19:43:00,
2013-02-18 14:44:00,27.0,3.0,30.19,WNW,292,2.0,6.0,38,0.00,,,0.00,TxWx,2013-02-18 19:44:00,
2013-02-18 14:45:00,22.0,11.0,30.18,SE,135,0.0,0.0,64,0.00,,,0.00,TxWx,2013-02-18 19:45:00,
2013-02-18 14:51:00,27.0,3.0,30.19,West,270,6.0,8.0,37,0.00,,,0.00,TxWx,2013-02-18 19:51:00,
2013-02-18 14:56:00,27.0,3.0,30.19,SW,225,10.0,11.0,37,0.00,,,0.00,TxWx,2013-02-18 19:56:00,
2013-02-18 15:00:00,21.0,10.0,30.18,East,90,0.0,0.0,66,0.00,,,0.00,TxWx,2013-02-18 20:00:00,
2013-02-18 15:01:00,27.0,3.0,30.19,WNW,292,10.0,10.0,38,0.00,,,0.00,TxWx,2013-02-18 20:01:00,
2013-02-18 15:06:00,27.0,3.0,30.19,SW,225,8.0,11.0,36,0.00,,,0.00,TxWx,2013-02-18 20:06:00,
2013-02-18 15:11:00,27.0,3.0,30.20,WSW,247,13.0,19.0,36,0.00,,,0.00,TxWx,2013-02-18 20:11:00,
2013-02-18 15:16:00,27.0,3.0,30.20,West,270,11.0,14.0,38,0.00,,,0.00,TxWx,2013-02-18 20:16:00,
2013-02-18 15:22:00,28.0,4.0,30.19,WSW,247,6.0,6.0,38,0.00,,,0.00,TxWx,2013-02-18 20:22:00,
2013-02-18 15:27:00,27.0,3.0,30.19,NW,315,11.0,11.0,38,0.00,,,0.00,TxWx,2013-02-18 20:27:00,
2013-02-18 15:32:00,27.0,3.0,30.19,West,270,6.0,6.0,38,0.00,,,0.00,TxWx,2013-02-18 20:32:00,
2013-02-18 15:37:00,28.0,5.0,30.19,West,270,9.0,10.0,38,0.00,,,0.00,TxWx,2013-02-18 20:37:00,
2013-02-18 15:42:00,28.0,5.0,30.19,SW,225,5.0,6.0,39,0.00,,,0.00,TxWx,2013-02-18 20:42:00,
2013-02-18 15:47:00,28.0,6.0,30.19,SW,225,5.0,10.0,40,0.00,,,0.00,TxWx,2013-02-18 20:47:00,
2013-02-18 15:52:00,27.0,5.0,30.19,West,270,7.0,8.0,41,0.00,,,0.00,TxWx,2013-02-18 20:52:00,
2013-02-18 15:57:00,28.0,6.0,30.20,SSW,202,13.0,15.0,40,0.00,,,0.00,TxWx,2013-02-18 20:57:00,
2013-02-18 16:02:00,28.0,6.0,30.19,SSW,202,16.0,16.0,40,0.00,,,0.00,TxWx,2013-02-18 21:02:00,
2013-02-18 16:07:00,27.0,6.0,30.19,South,180,7.0,10.0,41,0.00,,,0.00,TxWx,2013-02-18 21:07:00,
2013-02-18 16:10:00,22.0,12.0,30.16,ENE,67,0.0,1.0,68,0.00,,,0.00,TxWx,2013-02-18 21:10:00,
2013-02-18 16:11:00,22.0,12.0,30.16,ENE,67,0.0,1.0,68,0.00,,,0.00,TxWx,2013-02-18 21:11:00,
2013-02-18 16:12:00,28.0,6.0,30.19,SW,225,12.0,12.0,41,0.00,,,0.00,TxWx,2013-02-18 21:12:00,
2013-02-18 16:13:00,22.0,12.0,30.16,NE,45,0.0,0.0,69,0.00,,,0.00,TxWx,2013-02-18 21:13:00,
2013-02-18 16:14:00,22.0,12.0,30.15,NNE,22,0.0,1.0,69,0.00,,,0.00,TxWx,2013-02-18 21:14:00,
2013-02-18 16:15:00,22.0,12.0,30.15,ESE,112,0.0,1.0,69,0.00,,,0.00,TxWx,2013-02-18 21:15:00,
2013-02-18 16:16:00,22.0,12.0,30.15,ENE,67,0.0,1.0,69,0.00,,,0.00,TxWx,2013-02-18 21:16:00,
2013-02-18 16:17:00,28.0,7.0,30.19,SW,225,5.0,7.0,42,0.00,,,0.00,TxWx,2013-02-18 21:17:00,
2013-02-18 16:23:00,28.0,7.0,30.19,West,270,9.0,13.0,43,0.00,,,0.00,TxWx,2013-02-18 21:23:00,
2013-02-18 16:28:00,27.0,6.0,30.19,SW,225,11.0,11.0,42,0.00,,,0.00,TxWx,2013-02-18 21:28:00,
2013-02-18 16:33:00,28.0,7.0,30.19,SW,225,6.0,6.0,42,0.00,,,0.00,TxWx,2013-02-18 21:33:00,
2013-02-18 16:38:00,27.0,6.0,30.19,West,270,6.0,7.0,42,0.00,,,0.00,TxWx,2013-02-18 21:38:00,
2013-02-18 16:47:00,28.0,7.0,30.20,West,270,2.0,4.0,43,0.00,,,0.00,TxWx,2013-02-18 21:47:00,
2013-02-18 16:52:00,28.0,7.0,30.20,WSW,247,4.0,6.0,43,0.00,,,0.00,TxWx,2013-02-18 21:52:00,
2013-02-18 16:58:00,27.0,6.0,30.20,SW,225,8.0,8.0,43,0.00,,,0.00,TxWx,2013-02-18 21:58:00,
2013-02-18 17:00:00,23.0,13.0,30.13,NNE,22,2.0,3.0,67,0.00,,,0.00,TxWx,2013-02-18 22:00:00,
2013-02-18 17:01:00,23.0,13.0,30.13,NNE,22,2.0,3.0,67,0.00,,,0.00,TxWx,2013-02-18 22:01:00,
2013-02-18 17:03:00,27.0,7.0,30.20,SW,225,3.0,5.0,44,0.00,,,0.00,TxWx,2013-02-18 22:03:00,
2013-02-18 17:04:00,23.0,13.0,30.13,NNW,337,3.0,3.0,67,0.00,,,0.00,TxWx,2013-02-18 22:04:00,
2013-02-18 17:08:00,27.0,7.0,30.19,WSW,247,6.0,8.0,44,0.00,,,0.00,TxWx,2013-02-18 22:08:00,
2013-02-18 17:10:00,23.0,12.0,30.13,NNW,337,3.0,5.0,66,0.00,,,0.00,TxWx,2013-02-18 22:10:00,
2013-02-18 17:11:00,23.0,12.0,30.13,NNW,337,4.0,5.0,66,0.00,,,0.00,TxWx,2013-02-18 22:11:00,
2013-02-18 17:13:00,27.0,7.0,30.20,SSE,157,6.0,7.0,45,0.00,,,0.00,TxWx,2013-02-18 22:13:00,
2013-02-18 17:18:00,27.0,7.0,30.19,SSW,202,5.0,6.0,45,0.00,,,0.00,TxWx,2013-02-18 22:18:00,
2013-02-18 17:23:00,27.0,7.0,30.19,WSW,247,3.0,5.0,45,0.00,,,0.00,TxWx,2013-02-18 22:23:00,
2013-02-18 17:28:00,27.0,7.0,30.19,WSW,247,3.0,5.0,45,0.00,,,0.00,TxWx,2013-02-18 22:28:00,
2013-02-18 17:33:00,27.0,7.0,30.19,WNW,292,5.0,6.0,45,0.00,,,0.00,TxWx,2013-02-18 22:33:00,
2013-02-18 17:38:00,27.0,7.0,30.19,West,270,8.0,8.0,45,0.00,,,0.00,TxWx,2013-02-18 22:38:00,
2013-02-18 17:43:00,27.0,7.0,30.19,NNE,22,1.0,2.0,45,0.00,,,0.00,TxWx,2013-02-18 22:43:00,
2013-02-18 17:48:00,27.0,7.0,30.19,WNW,292,5.0,5.0,45,0.00,,,0.00,TxWx,2013-02-18 22:48:00,
2013-02-18 17:53:00,26.0,7.0,30.19,WSW,247,3.0,4.0,45,0.00,,,0.00,TxWx,2013-02-18 22:53:00,
2013-02-18 17:59:00,26.0,7.0,30.19,WSW,247,4.0,5.0,45,0.00,,,0.00,TxWx,2013-02-18 22:59:00,
2013-02-18 18:04:00,26.0,7.0,30.19,NW,315,4.0,5.0,45,0.00,,,0.00,TxWx,2013-02-18 23:04:00,
2013-02-18 18:09:00,26.0,7.0,30.20,SW,225,1.0,1.0,45,0.00,,,0.00,TxWx,2013-02-18 23:09:00,
2013-02-18 18:14:00,26.0,7.0,30.20,West,270,3.0,5.0,45,0.00,,,0.00,TxWx,2013-02-18 23:14:00,
2013-02-18 18:19:00,26.0,7.0,30.20,WNW,292,3.0,5.0,46,0.00,,,0.00,TxWx,2013-02-18 23:19:00,
2013-02-18 18:24:00,26.0,7.0,30.20,SSW,202,2.0,2.0,46,0.00,,,0.00,TxWx,2013-02-18 23:24:00,
2013-02-18 18:29:00,26.0,7.0,30.20,WSW,247,3.0,4.0,46,0.00,,,0.00,TxWx,2013-02-18 23:29:00,
2013-02-18 18:34:00,26.0,7.0,30.21,SSW,202,1.0,1.0,46,0.00,,,0.00,TxWx,2013-02-18 23:34:00,
2013-02-18 18:39:00,26.0,7.0,30.20,South,180,1.0,2.0,46,0.00,,,0.00,TxWx,2013-02-18 23:39:00,
2013-02-18 18:44:00,26.0,7.0,30.20,WSW,247,1.0,1.0,46,0.00,,,0.00,TxWx,2013-02-18 23:44:00,
2013-02-18 18:49:00,26.0,7.0,30.21,WSW,247,5.0,5.0,46,0.00,,,0.00,TxWx,2013-02-18 23:49:00,
2013-02-18 18:54:00,26.0,7.0,30.20,WSW,247,1.0,3.0,47,0.00,,,0.00,TxWx,2013-02-18 23:54:00,
2013-02-18 18:59:00,26.0,7.0,30.21,SSE,157,0.0,1.0,47,0.00,,,0.00,TxWx,2013-02-18 23:59:00,
2013-02-18 19:04:00,26.0,8.0,30.21,ESE,112,0.0,0.0,47,0.00,,,0.00,TxWx,2013-02-19 00:04:00,
2013-02-18 19:10:00,26.0,8.0,30.20,SW,225,1.0,1.0,47,0.00,,,0.00,TxWx,2013-02-19 00:10:00,
2013-02-18 19:15:00,25.0,7.0,30.20,NNE,22,0.0,1.0,48,0.00,,,0.00,TxWx,2013-02-19 00:15:00,
2013-02-18 19:20:00,26.0,8.0,30.20,WNW,292,2.0,3.0,48,0.00,,,0.00,TxWx,2013-02-19 00:20:00,
2013-02-18 19:25:00,25.0,8.0,30.20,WNW,292,0.0,0.0,48,0.00,,,0.00,TxWx,2013-02-19 00:25:00,
2013-02-18 19:30:00,25.0,7.0,30.20,WNW,292,0.0,1.0,48,0.00,,,0.00,TxWx,2013-02-19 00:30:00,
2013-02-18 19:35:00,25.0,7.0,30.19,WNW,292,0.0,0.0,49,0.00,,,0.00,TxWx,2013-02-19 00:35:00,
2013-02-18 19:40:00,25.0,8.0,30.20,WNW,292,0.0,0.0,49,0.00,,,0.00,TxWx,2013-02-19 00:40:00,
2013-02-18 19:45:00,25.0,8.0,30.20,WNW,292,0.0,0.0,50,0.00,,,0.00,TxWx,2013-02-19 00:45:00,
2013-02-18 19:50:00,25.0,8.0,30.19,WNW,292,0.0,0.0,50,0.00,,,0.00,TxWx,2013-02-19 00:50:00,
2013-02-18 19:55:00,24.0,7.0,30.19,WNW,292,0.0,0.0,51,0.00,,,0.00,TxWx,2013-02-19 00:55:00,
2013-02-18 20:00:00,24.0,8.0,30.19,WNW,292,1.0,1.0,52,0.00,,,0.00,TxWx,2013-02-19 01:00:00,
2013-02-18 20:05:00,24.0,8.0,30.19,WNW,292,0.0,0.0,52,0.00,,,0.00,TxWx,2013-02-19 01:05:00,
2013-02-18 20:10:00,24.0,8.0,30.19,WNW,292,1.0,1.0,53,0.00,,,0.00,TxWx,2013-02-19 01:10:00,
2013-02-18 20:16:00,23.0,8.0,30.19,WNW,292,0.0,0.0,54,0.00,,,0.00,TxWx,2013-02-19 01:16:00,
2013-02-18 20:21:00,23.0,8.0,30.18,WNW,292,0.0,0.0,54,0.00,,,0.00,TxWx,2013-02-19 01:21:00,
2013-02-18 20:26:00,23.0,8.0,30.18,WNW,292,0.0,0.0,55,0.00,,,0.00,TxWx,2013-02-19 01:26:00,
2013-02-18 20:31:00,23.0,8.0,30.19,SSW,202,0.0,1.0,56,0.00,,,0.00,TxWx,2013-02-19 01:31:00,
2013-02-18 20:36:00,23.0,9.0,30.19,South,180,0.0,0.0,57,0.00,,,0.00,TxWx,2013-02-19 01:36:00,
2013-02-18 20:41:00,23.0,9.0,30.20,SSW,202,0.0,0.0,57,0.00,,,0.00,TxWx,2013-02-19 01:41:00,
2013-02-18 20:46:00,23.0,9.0,30.20,South,180,0.0,0.0,58,0.00,,,0.00,TxWx,2013-02-19 01:46:00,
2013-02-18 20:51:00,23.0,9.0,30.19,SE,135,0.0,0.0,58,0.00,,,0.00,TxWx,2013-02-19 01:51:00,
2013-02-18 20:56:00,22.0,9.0,30.19,East,90,0.0,0.0,59,0.00,,,0.00,TxWx,2013-02-19 01:56:00,
2013-02-18 21:01:00,22.0,9.0,30.19,NE,45,0.0,0.0,60,0.00,,,0.00,TxWx,2013-02-19 02:01:00,
2013-02-18 21:06:00,22.0,9.0,30.20,NNE,22,0.0,0.0,60,0.00,,,0.00,TxWx,2013-02-19 02:06:00,
2013-02-18 21:11:00,22.0,9.0,30.19,NE,45,0.0,0.0,61,0.00,,,0.00,TxWx,2013-02-19 02:11:00,
2013-02-18 21:16:00,22.0,10.0,30.19,East,90,0.0,0.0,61,0.00,,,0.00,TxWx,2013-02-19 02:16:00,
2013-02-18 21:21:00,22.0,10.0,30.19,ESE,112,0.0,0.0,62,0.00,,,0.00,TxWx,2013-02-19 02:21:00,
2013-02-18 21:27:00,22.0,10.0,30.19,ENE,67,0.0,0.0,63,0.00,,,0.00,TxWx,2013-02-19 02:27:00,
2013-02-18 21:32:00,21.0,9.0,30.19,ESE,112,0.0,0.0,63,0.00,,,0.00,TxWx,2013-02-19 02:32:00,
2013-02-18 21:37:00,21.0,10.0,30.19,SSE,157,0.0,0.0,64,0.00,,,0.00,TxWx,2013-02-19 02:37:00,
2013-02-18 21:42:00,21.0,10.0,30.18,South,180,0.0,0.0,65,0.00,,,0.00,TxWx,2013-02-19 02:42:00,
2013-02-18 21:47:00,21.0,10.0,30.18,SSE,157,0.0,0.0,65,0.00,,,0.00,TxWx,2013-02-19 02:47:00,
2013-02-18 21:52:00,21.0,10.0,30.18,NE,45,0.0,0.0,65,0.00,,,0.00,TxWx,2013-02-19 02:52:00,
2013-02-18 21:57:00,21.0,10.0,30.18,South,180,0.0,0.0,65,0.00,,,0.00,TxWx,2013-02-19 02:57:00,
2013-02-18 22:02:00,21.0,10.0,30.17,SSE,157,0.0,0.0,65,0.00,,,0.00,TxWx,2013-02-19 03:02:00,
2013-02-18 22:07:00,21.0,10.0,30.17,NNE,22,0.0,0.0,66,0.00,,,0.00,TxWx,2013-02-19 03:07:00,
2013-02-18 22:12:00,21.0,10.0,30.17,WSW,247,0.0,1.0,66,0.00,,,0.00,TxWx,2013-02-19 03:12:00,
2013-02-18 22:17:00,21.0,10.0,30.17,NNW,337,2.0,2.0,65,0.00,,,0.00,TxWx,2013-02-19 03:17:00,
2013-02-18 22:22:00,21.0,10.0,30.17,NE,45,0.0,0.0,66,0.00,,,0.00,TxWx,2013-02-19 03:22:00,
2013-02-18 22:27:00,21.0,10.0,30.17,North,0,0.0,0.0,66,0.00,,,0.00,TxWx,2013-02-19 03:27:00,
2013-02-18 22:32:00,21.0,10.0,30.16,NW,315,0.0,0.0,66,0.00,,,0.00,TxWx,2013-02-19 03:32:00,
2013-02-18 22:38:00,21.0,11.0,30.16,NNE,22,0.0,0.0,67,0.00,,,0.00,TxWx,2013-02-19 03:38:00,
2013-02-18 22:43:00,21.0,11.0,30.16,East,90,0.0,0.0,67,0.00,,,0.00,TxWx,2013-02-19 03:43:00,
2013-02-18 22:48:00,21.0,11.0,30.16,SE,135,0.0,1.0,68,0.00,,,0.00,TxWx,2013-02-19 03:48:00,
2013-02-18 22:53:00,21.0,11.0,30.16,SSE,157,2.0,3.0,68,0.00,,,0.00,TxWx,2013-02-19 03:53:00,
2013-02-18 22:58:00,21.0,11.0,30.17,SE,135,0.0,0.0,68,0.00,,,0.00,TxWx,2013-02-19 03:58:00,
2013-02-18 23:03:00,21.0,11.0,30.17,SSW,202,0.0,0.0,68,0.00,,,0.00,TxWx,2013-02-19 04:03:00,
2013-02-18 23:08:00,21.0,11.0,30.18,SSE,157,0.0,0.0,68,0.00,,,0.00,TxWx,2013-02-19 04:08:00,
2013-02-18 23:13:00,21.0,11.0,30.18,South,180,0.0,0.0,68,0.00,,,0.00,TxWx,2013-02-19 04:13:00,
2013-02-18 23:18:00,22.0,12.0,30.18,SSE,157,2.0,2.0,67,0.00,,,0.00,TxWx,2013-02-19 04:18:00,
2013-02-18 23:23:00,22.0,12.0,30.18,South,180,2.0,3.0,67,0.00,,,0.00,TxWx,2013-02-19 04:23:00,
2013-02-18 23:28:00,22.0,12.0,30.18,SSE,157,0.0,0.0,67,0.00,,,0.00,TxWx,2013-02-19 04:28:00,
2013-02-18 23:33:00,22.0,12.0,30.18,ESE,112,1.0,2.0,66,0.00,,,0.00,TxWx,2013-02-19 04:33:00,
2013-02-18 23:38:00,23.0,12.0,30.17,East,90,0.0,1.0,66,0.00,,,0.00,TxWx,2013-02-19 04:38:00,
2013-02-18 23:44:00,23.0,12.0,30.17,SSE,157,0.0,1.0,66,0.00,,,0.00,TxWx,2013-02-19 04:44:00,
2013-02-18 23:49:00,22.0,12.0,30.17,ESE,112,3.0,3.0,65,0.00,,,0.00,TxWx,2013-02-19 04:49:00,
2013-02-18 23:54:00,22.0,11.0,30.18,ESE,112,0.0,0.0,65,0.00,,,0.00,TxWx,2013-02-19 04:54:00,
2013-02-18 23:59:00,22.0,11.0,30.18,SE,135,3.0,3.0,65,0.00,,,0.00,TxWx,2013-02-19 04:59:00,